sensor_id;sensor_type;location;lat;lon;timestamp;temperature;humidity
40996;DHT22;26723;57.478;12.066;2023-08-07T00:00:03;14.20;99.90
40996;DHT22;26723;57.478;12.066;2023-08-07T00:03:11;14.20;99.90
40996;DHT22;26723;57.478;12.066;2023-08-07T00:06:27;14.20;99.90
40996;DHT22;26723;57.478;12.066;2023-08-07T00:09:36;14.20;99.90
40996;DHT22;26723;57.478;12.066;2023-08-07T00:12:44;14.20;99.90
40996;DHT22;26723;57.478;12.066;2023-08-07T00:15:53;14.20;99.90
40996;DHT22;26723;57.478;12.066;2023-08-07T00:19:02;14.30;99.90
40996;DHT22;26723;57.478;12.066;2023-08-07T00:22:12;14.20;99.90
40996;DHT22;26723;57.478;12.066;2023-08-07T00:25:21;14.20;99.90
40996;DHT22;26723;57.478;12.066;2023-08-07T00:28:29;14.30;99.90
40996;DHT22;26723;57.478;12.066;2023-08-07T00:31:37;14.30;99.90
40996;DHT22;26723;57.478;12.066;2023-08-07T00:34:47;14.20;99.90
40996;DHT22;26723;57.478;12.066;2023-08-07T00:37:57;14.20;99.90
40996;DHT22;26723;57.478;12.066;2023-08-07T00:41:05;14.30;99.90
40996;DHT22;26723;57.478;12.066;2023-08-07T00:44:14;14.20;99.90
40996;DHT22;26723;57.478;12.066;2023-08-07T00:47:23;14.30;99.90
40996;DHT22;26723;57.478;12.066;2023-08-07T00:50:31;14.30;99.90
40996;DHT22;26723;57.478;12.066;2023-08-07T00:53:54;14.20;99.90
40996;DHT22;26723;57.478;12.066;2023-08-07T00:57:10;14.20;99.90
40996;DHT22;26723;57.478;12.066;2023-08-07T01:00:19;14.20;99.90
40996;DHT22;26723;57.478;12.066;2023-08-07T01:03:29;14.30;99.90
40996;DHT22;26723;57.478;12.066;2023-08-07T01:06:41;14.20;99.90
40996;DHT22;26723;57.478;12.066;2023-08-07T01:09:51;14.20;99.90
40996;DHT22;26723;57.478;12.066;2023-08-07T01:13:04;14.20;99.90
40996;DHT22;26723;57.478;12.066;2023-08-07T01:16:19;14.20;99.90
40996;DHT22;26723;57.478;12.066;2023-08-07T01:19:30;14.10;99.90
40996;DHT22;26723;57.478;12.066;2023-08-07T01:22:41;14.20;99.90
40996;DHT22;26723;57.478;12.066;2023-08-07T01:25:50;14.30;99.90
40996;DHT22;26723;57.478;12.066;2023-08-07T01:29:06;14.30;99.90
40996;DHT22;26723;57.478;12.066;2023-08-07T01:32:21;14.30;99.90
40996;DHT22;26723;57.478;12.066;2023-08-07T01:35:34;14.20;99.90
40996;DHT22;26723;57.478;12.066;2023-08-07T01:38:45;14.20;99.90
40996;DHT22;26723;57.478;12.066;2023-08-07T01:41:56;14.30;99.90
40996;DHT22;26723;57.478;12.066;2023-08-07T01:45:07;14.20;99.90
40996;DHT22;26723;57.478;12.066;2023-08-07T01:48:16;14.20;99.90
40996;DHT22;26723;57.478;12.066;2023-08-07T01:51:27;14.20;99.90
40996;DHT22;26723;57.478;12.066;2023-08-07T01:54:40;14.20;99.90
40996;DHT22;26723;57.478;12.066;2023-08-07T01:57:48;14.20;99.90
40996;DHT22;26723;57.478;12.066;2023-08-07T02:00:57;14.20;99.90
40996;DHT22;26723;57.478;12.066;2023-08-07T02:04:06;14.30;99.90
40996;DHT22;26723;57.478;12.066;2023-08-07T02:07:14;14.20;99.90
40996;DHT22;26723;57.478;12.066;2023-08-07T02:10:24;14.30;99.90
40996;DHT22;26723;57.478;12.066;2023-08-07T02:13:33;14.30;99.90
40996;DHT22;26723;57.478;12.066;2023-08-07T02:16:46;14.30;99.90
40996;DHT22;26723;57.478;12.066;2023-08-07T02:19:55;14.30;99.90
40996;DHT22;26723;57.478;12.066;2023-08-07T02:23:04;14.30;99.90
40996;DHT22;26723;57.478;12.066;2023-08-07T02:26:14;14.30;99.90
40996;DHT22;26723;57.478;12.066;2023-08-07T02:29:23;14.30;99.90
40996;DHT22;26723;57.478;12.066;2023-08-07T02:32:31;14.30;99.90
40996;DHT22;26723;57.478;12.066;2023-08-07T02:35:41;14.30;99.90
40996;DHT22;26723;57.478;12.066;2023-08-07T02:38:50;14.30;99.90
40996;DHT22;26723;57.478;12.066;2023-08-07T02:42:02;14.30;99.90
40996;DHT22;26723;57.478;12.066;2023-08-07T02:45:11;14.30;99.90
40996;DHT22;26723;57.478;12.066;2023-08-07T02:48:20;14.40;99.90
40996;DHT22;26723;57.478;12.066;2023-08-07T02:51:28;14.30;99.90
40996;DHT22;26723;57.478;12.066;2023-08-07T02:54:38;14.30;99.90
40996;DHT22;26723;57.478;12.066;2023-08-07T02:57:47;14.30;99.90
40996;DHT22;26723;57.478;12.066;2023-08-07T03:00:56;14.40;99.90
40996;DHT22;26723;57.478;12.066;2023-08-07T03:04:06;14.40;99.90
40996;DHT22;26723;57.478;12.066;2023-08-07T03:07:15;14.30;99.90
40996;DHT22;26723;57.478;12.066;2023-08-07T03:10:23;14.40;99.90
40996;DHT22;26723;57.478;12.066;2023-08-07T03:13:34;14.40;99.90
40996;DHT22;26723;57.478;12.066;2023-08-07T03:16:42;14.40;99.90
40996;DHT22;26723;57.478;12.066;2023-08-07T03:19:51;14.40;99.90
40996;DHT22;26723;57.478;12.066;2023-08-07T03:23:00;14.30;99.90
40996;DHT22;26723;57.478;12.066;2023-08-07T03:26:10;14.30;99.90
40996;DHT22;26723;57.478;12.066;2023-08-07T03:29:28;14.40;99.90
40996;DHT22;26723;57.478;12.066;2023-08-07T03:32:38;14.30;99.90
40996;DHT22;26723;57.478;12.066;2023-08-07T03:35:50;14.30;99.90
40996;DHT22;26723;57.478;12.066;2023-08-07T03:39:00;14.40;99.90
40996;DHT22;26723;57.478;12.066;2023-08-07T03:42:11;14.40;99.90
40996;DHT22;26723;57.478;12.066;2023-08-07T03:45:21;14.30;99.90
40996;DHT22;26723;57.478;12.066;2023-08-07T03:48:30;14.30;99.90
40996;DHT22;26723;57.478;12.066;2023-08-07T03:51:41;14.30;99.90
40996;DHT22;26723;57.478;12.066;2023-08-07T03:54:49;14.30;99.90
40996;DHT22;26723;57.478;12.066;2023-08-07T03:57:58;14.30;99.90
40996;DHT22;26723;57.478;12.066;2023-08-07T04:01:08;14.30;99.90
40996;DHT22;26723;57.478;12.066;2023-08-07T04:04:18;14.30;99.90
40996;DHT22;26723;57.478;12.066;2023-08-07T04:07:27;14.30;99.90
40996;DHT22;26723;57.478;12.066;2023-08-07T04:10:36;14.40;99.90
40996;DHT22;26723;57.478;12.066;2023-08-07T04:13:45;14.40;99.90
40996;DHT22;26723;57.478;12.066;2023-08-07T04:16:54;14.40;99.90
40996;DHT22;26723;57.478;12.066;2023-08-07T04:20:05;14.40;99.90
40996;DHT22;26723;57.478;12.066;2023-08-07T04:23:14;14.40;99.90
40996;DHT22;26723;57.478;12.066;2023-08-07T04:26:22;14.40;99.90
40996;DHT22;26723;57.478;12.066;2023-08-07T04:29:31;14.40;99.90
40996;DHT22;26723;57.478;12.066;2023-08-07T04:32:41;14.40;99.90
40996;DHT22;26723;57.478;12.066;2023-08-07T04:35:50;14.40;99.90
40996;DHT22;26723;57.478;12.066;2023-08-07T04:38:58;14.50;99.90
40996;DHT22;26723;57.478;12.066;2023-08-07T04:42:07;14.40;99.90
40996;DHT22;26723;57.478;12.066;2023-08-07T04:45:18;14.50;99.90
40996;DHT22;26723;57.478;12.066;2023-08-07T04:48:28;14.50;99.90
40996;DHT22;26723;57.478;12.066;2023-08-07T04:51:37;14.50;99.90
40996;DHT22;26723;57.478;12.066;2023-08-07T04:54:45;14.50;99.90
40996;DHT22;26723;57.478;12.066;2023-08-07T04:57:53;14.50;99.90
40996;DHT22;26723;57.478;12.066;2023-08-07T05:01:03;14.50;99.90
40996;DHT22;26723;57.478;12.066;2023-08-07T05:04:13;14.50;99.90
40996;DHT22;26723;57.478;12.066;2023-08-07T05:07:22;14.50;99.90
40996;DHT22;26723;57.478;12.066;2023-08-07T05:10:31;14.50;99.90
40996;DHT22;26723;57.478;12.066;2023-08-07T05:13:39;14.50;99.90
40996;DHT22;26723;57.478;12.066;2023-08-07T05:16:48;14.50;99.90
40996;DHT22;26723;57.478;12.066;2023-08-07T05:19:59;14.50;99.90
40996;DHT22;26723;57.478;12.066;2023-08-07T05:23:08;14.50;99.90
40996;DHT22;26723;57.478;12.066;2023-08-07T05:26:17;14.50;99.90
40996;DHT22;26723;57.478;12.066;2023-08-07T05:29:26;14.60;99.90
40996;DHT22;26723;57.478;12.066;2023-08-07T05:32:35;14.60;99.90
40996;DHT22;26723;57.478;12.066;2023-08-07T05:35:46;14.50;99.90
40996;DHT22;26723;57.478;12.066;2023-08-07T05:38:55;14.60;99.90
40996;DHT22;26723;57.478;12.066;2023-08-07T05:42:04;14.60;99.90
40996;DHT22;26723;57.478;12.066;2023-08-07T05:45:17;14.60;99.90
40996;DHT22;26723;57.478;12.066;2023-08-07T05:48:26;14.70;99.90
40996;DHT22;26723;57.478;12.066;2023-08-07T05:51:37;14.70;99.90
40996;DHT22;26723;57.478;12.066;2023-08-07T05:54:45;14.70;99.90
40996;DHT22;26723;57.478;12.066;2023-08-07T05:57:55;14.70;99.90
40996;DHT22;26723;57.478;12.066;2023-08-07T06:01:04;14.80;99.90
40996;DHT22;26723;57.478;12.066;2023-08-07T06:04:13;14.80;99.90
40996;DHT22;26723;57.478;12.066;2023-08-07T06:07:30;14.80;99.90
40996;DHT22;26723;57.478;12.066;2023-08-07T06:10:39;14.80;99.90
40996;DHT22;26723;57.478;12.066;2023-08-07T06:13:48;14.90;99.90
40996;DHT22;26723;57.478;12.066;2023-08-07T06:17:10;14.90;99.90
40996;DHT22;26723;57.478;12.066;2023-08-07T06:20:19;14.90;99.90
40996;DHT22;26723;57.478;12.066;2023-08-07T06:23:29;14.90;99.90
40996;DHT22;26723;57.478;12.066;2023-08-07T06:26:38;15.00;99.90
40996;DHT22;26723;57.478;12.066;2023-08-07T06:29:47;15.00;99.90
40996;DHT22;26723;57.478;12.066;2023-08-07T06:32:55;15.00;99.90
40996;DHT22;26723;57.478;12.066;2023-08-07T06:36:06;14.90;99.90
40996;DHT22;26723;57.478;12.066;2023-08-07T06:39:17;14.90;99.90
40996;DHT22;26723;57.478;12.066;2023-08-07T06:42:27;15.00;99.90
40996;DHT22;26723;57.478;12.066;2023-08-07T06:45:35;15.00;99.90
40996;DHT22;26723;57.478;12.066;2023-08-07T06:48:46;15.00;99.90
40996;DHT22;26723;57.478;12.066;2023-08-07T06:51:54;15.00;99.90
40996;DHT22;26723;57.478;12.066;2023-08-07T06:55:07;15.10;99.90
40996;DHT22;26723;57.478;12.066;2023-08-07T06:58:16;15.10;99.90
40996;DHT22;26723;57.478;12.066;2023-08-07T07:01:24;15.10;99.90
40996;DHT22;26723;57.478;12.066;2023-08-07T07:04:34;15.20;99.90
40996;DHT22;26723;57.478;12.066;2023-08-07T07:07:43;15.20;99.90
40996;DHT22;26723;57.478;12.066;2023-08-07T07:10:54;15.20;99.90
40996;DHT22;26723;57.478;12.066;2023-08-07T07:14:05;15.20;99.90
40996;DHT22;26723;57.478;12.066;2023-08-07T07:17:14;15.20;99.90
40996;DHT22;26723;57.478;12.066;2023-08-07T07:20:24;15.20;99.90
40996;DHT22;26723;57.478;12.066;2023-08-07T07:23:34;15.20;99.90
40996;DHT22;26723;57.478;12.066;2023-08-07T07:26:44;15.20;99.90
40996;DHT22;26723;57.478;12.066;2023-08-07T07:29:52;15.20;99.90
40996;DHT22;26723;57.478;12.066;2023-08-07T07:33:01;15.30;99.90
40996;DHT22;26723;57.478;12.066;2023-08-07T07:36:14;15.30;99.90
40996;DHT22;26723;57.478;12.066;2023-08-07T07:39:23;15.30;99.90
40996;DHT22;26723;57.478;12.066;2023-08-07T07:42:34;15.40;99.90
40996;DHT22;26723;57.478;12.066;2023-08-07T07:45:44;15.40;99.90
40996;DHT22;26723;57.478;12.066;2023-08-07T07:48:52;15.40;99.90
40996;DHT22;26723;57.478;12.066;2023-08-07T07:52:01;15.40;99.90
40996;DHT22;26723;57.478;12.066;2023-08-07T07:55:10;15.50;99.90
40996;DHT22;26723;57.478;12.066;2023-08-07T07:58:23;15.60;99.90
40996;DHT22;26723;57.478;12.066;2023-08-07T08:01:31;15.60;99.90
40996;DHT22;26723;57.478;12.066;2023-08-07T08:04:41;15.60;99.90
40996;DHT22;26723;57.478;12.066;2023-08-07T08:07:49;15.60;99.90
40996;DHT22;26723;57.478;12.066;2023-08-07T08:10:58;15.60;99.90
40996;DHT22;26723;57.478;12.066;2023-08-07T08:14:11;15.60;99.90
40996;DHT22;26723;57.478;12.066;2023-08-07T08:17:20;15.60;99.90
40996;DHT22;26723;57.478;12.066;2023-08-07T08:20:28;15.60;99.90
40996;DHT22;26723;57.478;12.066;2023-08-07T08:23:38;15.60;99.90
40996;DHT22;26723;57.478;12.066;2023-08-07T08:26:46;15.60;99.90
40996;DHT22;26723;57.478;12.066;2023-08-07T08:29:56;15.50;99.90
40996;DHT22;26723;57.478;12.066;2023-08-07T08:33:05;15.60;99.90
40996;DHT22;26723;57.478;12.066;2023-08-07T08:36:14;15.60;99.90
40996;DHT22;26723;57.478;12.066;2023-08-07T08:39:23;15.60;99.90
40996;DHT22;26723;57.478;12.066;2023-08-07T08:42:32;15.60;99.90
40996;DHT22;26723;57.478;12.066;2023-08-07T08:45:44;15.70;99.90
40996;DHT22;26723;57.478;12.066;2023-08-07T08:48:57;15.70;99.90
40996;DHT22;26723;57.478;12.066;2023-08-07T08:52:11;15.70;99.90
40996;DHT22;26723;57.478;12.066;2023-08-07T08:55:21;15.70;99.90
40996;DHT22;26723;57.478;12.066;2023-08-07T08:58:31;15.70;99.90
40996;DHT22;26723;57.478;12.066;2023-08-07T09:01:41;15.70;99.90
40996;DHT22;26723;57.478;12.066;2023-08-07T09:04:50;15.70;99.90
40996;DHT22;26723;57.478;12.066;2023-08-07T09:07:59;15.80;99.90
40996;DHT22;26723;57.478;12.066;2023-08-07T09:11:12;15.80;99.90
40996;DHT22;26723;57.478;12.066;2023-08-07T09:14:26;15.80;99.90
40996;DHT22;26723;57.478;12.066;2023-08-07T09:17:41;15.90;99.90
40996;DHT22;26723;57.478;12.066;2023-08-07T09:20:52;15.90;99.90
40996;DHT22;26723;57.478;12.066;2023-08-07T09:24:00;16.00;99.90
40996;DHT22;26723;57.478;12.066;2023-08-07T09:27:09;16.00;99.90
40996;DHT22;26723;57.478;12.066;2023-08-07T09:30:19;16.00;99.90
40996;DHT22;26723;57.478;12.066;2023-08-07T09:33:29;16.10;99.90
40996;DHT22;26723;57.478;12.066;2023-08-07T09:36:40;16.10;99.90
40996;DHT22;26723;57.478;12.066;2023-08-07T09:39:51;16.20;99.90
40996;DHT22;26723;57.478;12.066;2023-08-07T09:43:02;16.20;99.90
40996;DHT22;26723;57.478;12.066;2023-08-07T09:46:12;16.20;99.90
40996;DHT22;26723;57.478;12.066;2023-08-07T09:49:21;16.20;99.90
40996;DHT22;26723;57.478;12.066;2023-08-07T09:52:30;16.20;99.90
40996;DHT22;26723;57.478;12.066;2023-08-07T09:55:38;16.20;99.90
40996;DHT22;26723;57.478;12.066;2023-08-07T09:58:48;16.20;99.90
40996;DHT22;26723;57.478;12.066;2023-08-07T10:01:57;16.20;99.90
40996;DHT22;26723;57.478;12.066;2023-08-07T10:05:10;16.20;99.90
40996;DHT22;26723;57.478;12.066;2023-08-07T10:08:21;16.20;99.90
40996;DHT22;26723;57.478;12.066;2023-08-07T10:11:30;16.20;99.90
40996;DHT22;26723;57.478;12.066;2023-08-07T10:14:42;16.30;99.90
40996;DHT22;26723;57.478;12.066;2023-08-07T10:17:50;16.30;99.90
40996;DHT22;26723;57.478;12.066;2023-08-07T10:21:04;16.30;99.90
40996;DHT22;26723;57.478;12.066;2023-08-07T10:24:14;16.30;99.90
40996;DHT22;26723;57.478;12.066;2023-08-07T10:27:24;16.30;99.90
40996;DHT22;26723;57.478;12.066;2023-08-07T10:30:34;16.40;99.90
40996;DHT22;26723;57.478;12.066;2023-08-07T10:33:44;16.50;99.90
40996;DHT22;26723;57.478;12.066;2023-08-07T10:36:54;16.50;99.90
40996;DHT22;26723;57.478;12.066;2023-08-07T10:40:04;16.60;99.90
40996;DHT22;26723;57.478;12.066;2023-08-07T10:43:13;16.60;99.90
40996;DHT22;26723;57.478;12.066;2023-08-07T10:46:25;16.70;99.90
40996;DHT22;26723;57.478;12.066;2023-08-07T10:49:35;16.70;99.90
40996;DHT22;26723;57.478;12.066;2023-08-07T10:52:51;16.70;99.90
40996;DHT22;26723;57.478;12.066;2023-08-07T10:56:01;16.70;99.90
40996;DHT22;26723;57.478;12.066;2023-08-07T10:59:11;16.80;99.90
40996;DHT22;26723;57.478;12.066;2023-08-07T11:02:24;16.80;99.90
40996;DHT22;26723;57.478;12.066;2023-08-07T11:05:33;16.80;99.90
40996;DHT22;26723;57.478;12.066;2023-08-07T11:08:44;16.90;99.90
40996;DHT22;26723;57.478;12.066;2023-08-07T11:11:53;16.90;99.90
40996;DHT22;26723;57.478;12.066;2023-08-07T11:15:03;17.00;99.90
40996;DHT22;26723;57.478;12.066;2023-08-07T11:18:12;17.00;99.90
40996;DHT22;26723;57.478;12.066;2023-08-07T11:21:20;17.10;99.90
40996;DHT22;26723;57.478;12.066;2023-08-07T11:24:30;17.10;99.90
40996;DHT22;26723;57.478;12.066;2023-08-07T11:27:39;17.20;99.90
40996;DHT22;26723;57.478;12.066;2023-08-07T11:30:50;17.20;99.90
40996;DHT22;26723;57.478;12.066;2023-08-07T11:34:00;17.20;99.90
40996;DHT22;26723;57.478;12.066;2023-08-07T11:37:15;17.30;99.90
40996;DHT22;26723;57.478;12.066;2023-08-07T11:40:28;17.30;99.90
40996;DHT22;26723;57.478;12.066;2023-08-07T11:43:40;17.30;99.90
40996;DHT22;26723;57.478;12.066;2023-08-07T11:46:50;17.30;99.90
40996;DHT22;26723;57.478;12.066;2023-08-07T11:49:59;17.20;99.90
40996;DHT22;26723;57.478;12.066;2023-08-07T11:53:07;17.30;99.90
40996;DHT22;26723;57.478;12.066;2023-08-07T11:56:19;17.30;99.90
40996;DHT22;26723;57.478;12.066;2023-08-07T11:59:28;17.40;99.90
40996;DHT22;26723;57.478;12.066;2023-08-07T12:02:42;17.30;99.90
40996;DHT22;26723;57.478;12.066;2023-08-07T12:05:56;17.40;99.90
40996;DHT22;26723;57.478;12.066;2023-08-07T12:09:06;17.40;99.90
40996;DHT22;26723;57.478;12.066;2023-08-07T12:12:20;17.30;99.90
40996;DHT22;26723;57.478;12.066;2023-08-07T12:15:29;17.40;99.90
40996;DHT22;26723;57.478;12.066;2023-08-07T12:18:38;17.40;99.90
40996;DHT22;26723;57.478;12.066;2023-08-07T12:21:46;17.40;99.90
40996;DHT22;26723;57.478;12.066;2023-08-07T12:24:55;17.40;99.90
40996;DHT22;26723;57.478;12.066;2023-08-07T12:28:05;17.40;99.90
40996;DHT22;26723;57.478;12.066;2023-08-07T12:31:13;17.40;99.90
40996;DHT22;26723;57.478;12.066;2023-08-07T12:34:24;17.40;99.90
40996;DHT22;26723;57.478;12.066;2023-08-07T12:37:36;17.40;99.90
40996;DHT22;26723;57.478;12.066;2023-08-07T12:40:45;17.40;99.90
40996;DHT22;26723;57.478;12.066;2023-08-07T12:43:55;17.40;99.90
40996;DHT22;26723;57.478;12.066;2023-08-07T12:47:03;17.40;99.90
40996;DHT22;26723;57.478;12.066;2023-08-07T12:50:12;17.30;99.90
40996;DHT22;26723;57.478;12.066;2023-08-07T12:53:20;17.30;99.90
40996;DHT22;26723;57.478;12.066;2023-08-07T12:56:29;17.30;99.90
40996;DHT22;26723;57.478;12.066;2023-08-07T12:59:39;17.30;99.90
40996;DHT22;26723;57.478;12.066;2023-08-07T13:02:48;17.40;99.90
40996;DHT22;26723;57.478;12.066;2023-08-07T13:05:57;17.30;99.90
40996;DHT22;26723;57.478;12.066;2023-08-07T13:09:06;17.30;99.90
40996;DHT22;26723;57.478;12.066;2023-08-07T13:12:15;17.30;99.90
40996;DHT22;26723;57.478;12.066;2023-08-07T13:15:24;17.40;99.90
40996;DHT22;26723;57.478;12.066;2023-08-07T13:18:33;17.50;99.90
40996;DHT22;26723;57.478;12.066;2023-08-07T13:21:42;17.50;99.90
40996;DHT22;26723;57.478;12.066;2023-08-07T13:24:51;17.50;99.90
40996;DHT22;26723;57.478;12.066;2023-08-07T13:27:59;17.50;99.90
40996;DHT22;26723;57.478;12.066;2023-08-07T13:31:12;17.50;99.90
40996;DHT22;26723;57.478;12.066;2023-08-07T13:34:21;17.50;99.90
40996;DHT22;26723;57.478;12.066;2023-08-07T13:37:29;17.50;99.90
40996;DHT22;26723;57.478;12.066;2023-08-07T13:40:39;17.50;99.90
40996;DHT22;26723;57.478;12.066;2023-08-07T13:43:47;17.50;99.90
40996;DHT22;26723;57.478;12.066;2023-08-07T13:46:57;17.50;99.90
40996;DHT22;26723;57.478;12.066;2023-08-07T13:50:07;17.50;99.90
40996;DHT22;26723;57.478;12.066;2023-08-07T13:53:19;17.50;99.90
40996;DHT22;26723;57.478;12.066;2023-08-07T13:56:32;17.50;99.90
40996;DHT22;26723;57.478;12.066;2023-08-07T13:59:40;17.40;99.90
40996;DHT22;26723;57.478;12.066;2023-08-07T14:02:50;17.50;99.90
40996;DHT22;26723;57.478;12.066;2023-08-07T14:05:59;17.30;99.90
40996;DHT22;26723;57.478;12.066;2023-08-07T14:09:07;17.20;99.90
40996;DHT22;26723;57.478;12.066;2023-08-07T14:12:16;17.20;99.90
40996;DHT22;26723;57.478;12.066;2023-08-07T14:15:25;17.20;99.90
40996;DHT22;26723;57.478;12.066;2023-08-07T14:18:34;17.10;99.90
40996;DHT22;26723;57.478;12.066;2023-08-07T14:21:43;17.00;99.90
40996;DHT22;26723;57.478;12.066;2023-08-07T14:24:51;16.90;99.90
40996;DHT22;26723;57.478;12.066;2023-08-07T14:28:00;16.90;99.90
40996;DHT22;26723;57.478;12.066;2023-08-07T14:31:09;16.80;99.90
40996;DHT22;26723;57.478;12.066;2023-08-07T14:34:21;16.70;99.90
40996;DHT22;26723;57.478;12.066;2023-08-07T14:37:29;16.70;99.90
40996;DHT22;26723;57.478;12.066;2023-08-07T14:40:38;16.70;99.90
40996;DHT22;26723;57.478;12.066;2023-08-07T14:43:48;16.70;99.90
40996;DHT22;26723;57.478;12.066;2023-08-07T14:46:57;16.70;99.90
40996;DHT22;26723;57.478;12.066;2023-08-07T14:50:07;16.70;99.90
40996;DHT22;26723;57.478;12.066;2023-08-07T14:53:16;16.70;99.90
40996;DHT22;26723;57.478;12.066;2023-08-07T14:56:24;16.70;99.90
40996;DHT22;26723;57.478;12.066;2023-08-07T14:59:33;16.60;99.90
40996;DHT22;26723;57.478;12.066;2023-08-07T15:02:41;16.60;99.90
40996;DHT22;26723;57.478;12.066;2023-08-07T15:05:52;16.60;99.90
40996;DHT22;26723;57.478;12.066;2023-08-07T15:09:00;16.60;99.90
40996;DHT22;26723;57.478;12.066;2023-08-07T15:12:10;16.50;99.90
40996;DHT22;26723;57.478;12.066;2023-08-07T15:15:19;16.50;99.90
40996;DHT22;26723;57.478;12.066;2023-08-07T15:18:28;16.40;99.90
40996;DHT22;26723;57.478;12.066;2023-08-07T15:21:38;16.40;99.90
40996;DHT22;26723;57.478;12.066;2023-08-07T15:24:46;16.40;99.90
40996;DHT22;26723;57.478;12.066;2023-08-07T15:27:55;16.30;99.90
40996;DHT22;26723;57.478;12.066;2023-08-07T15:31:07;16.30;99.90
40996;DHT22;26723;57.478;12.066;2023-08-07T15:34:16;16.30;99.90
40996;DHT22;26723;57.478;12.066;2023-08-07T15:37:25;16.30;99.90
40996;DHT22;26723;57.478;12.066;2023-08-07T15:40:37;16.30;99.90
40996;DHT22;26723;57.478;12.066;2023-08-07T15:43:46;16.20;99.90
40996;DHT22;26723;57.478;12.066;2023-08-07T15:46:56;16.10;99.90
40996;DHT22;26723;57.478;12.066;2023-08-07T15:50:06;16.00;99.90
40996;DHT22;26723;57.478;12.066;2023-08-07T15:53:17;16.10;99.90
40996;DHT22;26723;57.478;12.066;2023-08-07T15:56:26;16.10;99.90
40996;DHT22;26723;57.478;12.066;2023-08-07T15:59:34;16.10;99.90
40996;DHT22;26723;57.478;12.066;2023-08-07T16:02:43;16.10;99.90
40996;DHT22;26723;57.478;12.066;2023-08-07T16:05:52;16.00;99.90
40996;DHT22;26723;57.478;12.066;2023-08-07T16:09:02;16.00;99.90
40996;DHT22;26723;57.478;12.066;2023-08-07T16:12:10;16.00;99.90
40996;DHT22;26723;57.478;12.066;2023-08-07T16:15:22;16.00;99.90
40996;DHT22;26723;57.478;12.066;2023-08-07T16:18:31;15.90;99.90
40996;DHT22;26723;57.478;12.066;2023-08-07T16:21:39;15.90;99.90
40996;DHT22;26723;57.478;12.066;2023-08-07T16:24:50;16.00;99.90
40996;DHT22;26723;57.478;12.066;2023-08-07T16:27:59;16.00;99.90
40996;DHT22;26723;57.478;12.066;2023-08-07T16:31:08;16.00;99.90
40996;DHT22;26723;57.478;12.066;2023-08-07T16:34:18;16.00;99.90
40996;DHT22;26723;57.478;12.066;2023-08-07T16:37:26;15.90;99.90
40996;DHT22;26723;57.478;12.066;2023-08-07T16:40:36;15.90;99.90
40996;DHT22;26723;57.478;12.066;2023-08-07T16:43:45;15.90;99.90
40996;DHT22;26723;57.478;12.066;2023-08-07T16:46:55;15.90;99.90
40996;DHT22;26723;57.478;12.066;2023-08-07T16:50:06;15.90;99.90
40996;DHT22;26723;57.478;12.066;2023-08-07T16:53:15;15.90;99.90
40996;DHT22;26723;57.478;12.066;2023-08-07T16:56:26;15.90;99.90
40996;DHT22;26723;57.478;12.066;2023-08-07T16:59:34;15.80;99.90
40996;DHT22;26723;57.478;12.066;2023-08-07T17:02:43;15.70;99.90
40996;DHT22;26723;57.478;12.066;2023-08-07T17:05:53;15.80;99.90
40996;DHT22;26723;57.478;12.066;2023-08-07T17:09:03;15.80;99.90
40996;DHT22;26723;57.478;12.066;2023-08-07T17:12:14;15.80;99.90
40996;DHT22;26723;57.478;12.066;2023-08-07T17:15:22;15.80;99.90
40996;DHT22;26723;57.478;12.066;2023-08-07T17:18:31;15.80;99.90
40996;DHT22;26723;57.478;12.066;2023-08-07T17:21:40;15.80;99.90
40996;DHT22;26723;57.478;12.066;2023-08-07T17:24:48;15.70;99.90
40996;DHT22;26723;57.478;12.066;2023-08-07T17:27:58;15.80;99.90
40996;DHT22;26723;57.478;12.066;2023-08-07T17:31:07;15.70;99.90
40996;DHT22;26723;57.478;12.066;2023-08-07T17:34:15;15.70;99.90
40996;DHT22;26723;57.478;12.066;2023-08-07T17:37:24;15.70;99.90
40996;DHT22;26723;57.478;12.066;2023-08-07T17:40:34;15.70;99.90
40996;DHT22;26723;57.478;12.066;2023-08-07T17:43:44;15.70;99.90
40996;DHT22;26723;57.478;12.066;2023-08-07T17:46:53;15.70;99.90
40996;DHT22;26723;57.478;12.066;2023-08-07T17:50:01;15.70;99.90
40996;DHT22;26723;57.478;12.066;2023-08-07T17:53:10;15.70;99.90
40996;DHT22;26723;57.478;12.066;2023-08-07T17:56:18;15.70;99.90
40996;DHT22;26723;57.478;12.066;2023-08-07T17:59:30;15.70;99.90
40996;DHT22;26723;57.478;12.066;2023-08-07T18:02:39;15.70;99.90
40996;DHT22;26723;57.478;12.066;2023-08-07T18:05:48;15.60;99.90
40996;DHT22;26723;57.478;12.066;2023-08-07T18:08:57;15.60;99.90
40996;DHT22;26723;57.478;12.066;2023-08-07T18:12:08;15.60;99.90
40996;DHT22;26723;57.478;12.066;2023-08-07T18:15:19;15.60;99.90
40996;DHT22;26723;57.478;12.066;2023-08-07T18:18:29;15.60;99.90
40996;DHT22;26723;57.478;12.066;2023-08-07T18:21:39;15.60;99.90
40996;DHT22;26723;57.478;12.066;2023-08-07T18:24:50;15.60;99.90
40996;DHT22;26723;57.478;12.066;2023-08-07T18:28:03;15.60;99.90
40996;DHT22;26723;57.478;12.066;2023-08-07T18:31:13;15.60;99.90
40996;DHT22;26723;57.478;12.066;2023-08-07T18:34:22;15.60;99.90
40996;DHT22;26723;57.478;12.066;2023-08-07T18:37:31;15.50;99.90
40996;DHT22;26723;57.478;12.066;2023-08-07T18:40:40;15.60;99.90
40996;DHT22;26723;57.478;12.066;2023-08-07T18:43:49;15.60;99.90
40996;DHT22;26723;57.478;12.066;2023-08-07T18:46:59;15.50;99.90
40996;DHT22;26723;57.478;12.066;2023-08-07T18:50:09;15.60;99.90
40996;DHT22;26723;57.478;12.066;2023-08-07T18:53:20;15.60;99.90
40996;DHT22;26723;57.478;12.066;2023-08-07T18:56:30;15.50;99.90
40996;DHT22;26723;57.478;12.066;2023-08-07T18:59:39;15.50;99.90
40996;DHT22;26723;57.478;12.066;2023-08-07T19:02:50;15.60;99.90
40996;DHT22;26723;57.478;12.066;2023-08-07T19:05:59;15.50;99.90
40996;DHT22;26723;57.478;12.066;2023-08-07T19:09:13;15.60;99.90
40996;DHT22;26723;57.478;12.066;2023-08-07T19:12:22;15.50;99.90
40996;DHT22;26723;57.478;12.066;2023-08-07T19:15:32;15.50;99.90
40996;DHT22;26723;57.478;12.066;2023-08-07T19:18:43;15.50;99.90
40996;DHT22;26723;57.478;12.066;2023-08-07T19:21:51;15.50;99.90
40996;DHT22;26723;57.478;12.066;2023-08-07T19:24:59;15.50;99.90
40996;DHT22;26723;57.478;12.066;2023-08-07T19:28:08;15.50;99.90
40996;DHT22;26723;57.478;12.066;2023-08-07T19:31:19;15.50;99.90
40996;DHT22;26723;57.478;12.066;2023-08-07T19:34:30;15.50;99.90
40996;DHT22;26723;57.478;12.066;2023-08-07T19:37:42;15.50;99.90